Latest Weather Observations for Casino

IDN60801

Issued at 2:32 pm EST Saturday 22 July 2017 (issued every 30 minutes, with the page automatically refreshed every 10 minutes)

About weather observations | Map of weather stations | Latest weather observations for NSW | Other Formats
Station Details ID: 058208 Name: CASINO AIRPORT AWS Lat: -28.88 Lon: 153.06 Height: 20.9 m
Data from the previous 72 hours. | See also: Recent months at Casino
Date/Time
EST
Temp
°C
App
Temp
°C
Dew
Point
°C
Rel
Hum
%
Delta-T
°C
Wind Press
QNH
hPa
Press
MSL
hPa
Rain since
9am
mm
Dir  Spd
km/h
Gust
km/h
Spd
kts
Gust
kts
22/02:30pm 20.4 18.6 5.6 38 7.3 SW 4 7 2 4 1020.6 1020.6 0.0
22/02:00pm 19.4 16.5 4.4 37 7.2 WSW 9 13 5 7 1021.2 1021.2 0.0
22/01:30pm 19.7 17.5 6.1 41 6.8 WNW 7 13 4 7 1021.4 1021.4 0.0
22/01:00pm 20.1 18.0 6.8 42 6.7 N 7 11 4 6 1021.9 1021.9 0.0
22/12:30pm 18.7 16.4 5.9 43 6.3 SSW 7 13 4 7 1022.4 1022.4 0.0
22/12:00pm 18.8 16.8 6.3 44 6.2 SW 6 11 3 6 1023.0 1023.0 0.0
22/11:30am 17.4 14.9 5.0 44 5.9 W 7 11 4 6 1023.4 1023.4 0.0
22/11:00am 16.7 14.4 5.9 49 5.2 NW 7 11 4 6 1024.0 1024.0 0.0
22/10:30am 14.8 11.6 5.1 52 4.6 NW 11 17 6 9 1024.4 1024.4 0.0
22/10:00am 14.2 11.7 4.5 52 4.5 NW 7 11 4 6 1024.7 1024.7 0.0
22/09:30am 12.9 10.4 4.8 58 3.7 NW 7 11 4 6 1025.0 1025.0 0.0
22/09:00am 11.0 8.2 5.3 68 2.6 NW 9 11 5 6 1024.9 1024.9 0.0
22/08:30am 8.9 6.6 4.7 75 1.9 W 6 9 3 5 1024.8 1024.8 0.0
22/08:00am 6.5 4.8 3.8 83 1.1 W 2 7 1 4 1024.5 1024.5 0.0
22/07:30am 4.4 1.7 2.4 87 0.8 WNW 6 7 3 4 1024.5 1024.5 0.0
22/07:00am 3.3 0.4 1.7 89 0.6 WNW 6 9 3 5 1024.1 1024.1 0.0
22/06:30am 2.6 -0.5 1.1 90 0.6 W 7 9 4 5 1023.7 1023.7 0.0
22/06:00am 2.9 -0.1 1.0 87 0.7 W 6 7 3 4 1023.3 1023.3 0.0
22/05:30am 3.6 0.2 1.6 87 0.8 WNW 9 13 5 7 1022.8 1022.8 0.0
22/05:00am 3.9 0.5 2.1 88 0.7 WNW 9 13 5 7 1022.5 1022.5 0.0
22/04:30am 3.9 0.6 2.3 89 0.6 WNW 9 11 5 6 1022.4 1022.4 0.0
22/04:00am 3.4 0.4 1.8 89 0.6 WNW 7 9 4 5 1022.5 1022.5 0.0
22/03:30am 3.6 0.6 2.3 91 0.5 W 7 11 4 6 1022.4 1022.4 0.0
22/03:00am 3.2 0.7 1.3 87 0.7 WNW 4 7 2 4 1022.4 1022.4 0.0
22/02:30am 3.4 0.5 1.3 86 0.8 WNW 6 9 3 5 1022.3 1022.3 0.0
22/02:00am 4.4 1.1 2.4 87 0.8 WNW 9 11 5 6 1022.2 1022.2 0.0
22/01:30am 4.6 1.3 2.6 87 0.8 W 9 11 5 6 1022.3 1022.3 0.0
22/01:00am 4.2 1.2 1.9 85 0.9 W 7 9 4 5 1022.2 1022.2 0.0
22/12:30am 4.7 1.4 2.4 85 0.9 W 9 13 5 7 1022.3 1022.3 0.0
22/12:00am 5.1 1.8 2.5 83 1.0 W 9 11 5 6 1022.4 1022.4 0.0
 
Date/Time
EST
Temp
°C
App
Temp
°C
Dew
Point
°C
Rel
Hum
%
Delta-T
°C
Wind Press
QNH
hPa
Press
MSL
hPa
Rain since
9am
mm
Dir  Spd
km/h
Gust
km/h
Spd
kts
Gust
kts
21/11:30pm 5.8 2.6 3.1 83 1.1 WNW 9 13 5 7 1022.6 1022.6 0.0
21/11:00pm 5.6 2.4 3.1 84 1.0 WNW 9 11 5 6 1022.8 1022.8 0.0
21/10:30pm 6.2 3.0 2.8 79 1.4 NW 9 11 5 6 1022.7 1022.7 0.0
21/10:00pm 6.3 2.7 3.1 80 1.3 WNW 11 13 6 7 1022.5 1022.5 0.0
21/09:30pm 6.5 3.3 3.3 80 1.3 W 9 11 5 6 1022.4 1022.4 0.0
21/09:00pm 6.3 3.3 4.1 86 0.9 W 9 13 5 7 1022.0 1022.0 0.0
21/08:30pm 5.4 3.9 3.1 85 0.9 CALM 0 0 0 0 1021.9 1021.9 0.0
21/08:00pm 5.6 4.1 2.8 82 1.1 CALM 0 0 0 0 1021.6 1021.6 0.0
21/07:30pm 7.6 6.2 3.8 77 1.6 CALM 0 0 0 0 1021.4 1021.4 0.0
21/07:00pm 7.2 5.0 3.3 76 1.6 NE 4 6 2 3 1021.1 1021.1 0.0
21/06:30pm 7.9 6.5 3.4 73 1.9 CALM 0 0 0 0 1020.7 1020.7 0.0
21/06:00pm 8.7 7.1 2.5 65 2.6 CALM 0 0 0 0 1020.3 1020.3 0.0
21/05:30pm 10.8 9.2 2.4 56 3.6 CALM 0 0 0 0 1020.0 1020.0 0.0
21/05:00pm 12.6 9.9 2.7 51 4.3 SE 6 7 3 4 1019.5 1019.5 0.0
21/04:30pm 15.6 12.1 1.4 38 6.2 SE 9 11 5 6 1019.1 1019.1 0.0
21/04:00pm 16.9 13.1 -0.8 30 7.5 S 9 13 5 7 1018.8 1018.8 0.0
21/03:30pm 17.5 13.3 -0.7 29 7.8 SE 11 17 6 9 1018.7 1018.7 0.0
21/03:00pm 17.6 14.0 0.3 31 7.5 S 9 13 5 7 1018.5 1018.5 0.0
21/02:30pm 17.9 14.2 0.1 30 7.7 S 9 15 5 8 1018.4 1018.4 0.0
21/02:00pm 18.1 14.9 -0.2 29 7.9 WSW 6 11 3 6 1018.3 1018.3 0.0
21/01:30pm 17.6 14.0 0.3 31 7.5 SSW 9 17 5 9 1018.3 1018.3 0.0
21/01:00pm 18.1 14.7 1.6 33 7.4 SE 9 13 5 7 1018.3 1018.3 0.0
21/12:30pm 17.8 14.2 0.5 31 7.6 ESE 9 15 5 8 1018.7 1018.7 0.0
21/12:00pm 16.5 12.4 -0.2 32 7.1 S 11 19 6 10 1019.3 1019.3 0.0
21/11:30am 16.3 12.3 0.4 34 6.9 SE 11 17 6 9 1019.5 1019.5 0.0
21/11:00am 15.6 12.3 0.2 35 6.5 W 7 11 4 6 1019.9 1019.9 0.0
21/10:30am 15.0 11.4 0.8 38 6.1 NW 9 15 5 8 1020.1 1020.1 0.0
21/10:00am 14.2 11.0 2.8 46 5.1 WNW 9 13 5 7 1020.4 1020.4 0.0
21/09:30am 13.1 10.4 3.7 53 4.2 NNW 7 11 4 6 1020.3 1020.3 0.0
21/09:00am 11.0 8.3 3.8 61 3.2 NW 7 11 4 6 1020.2 1020.2 0.0
21/08:30am 8.5 5.8 3.8 72 2.0 WNW 7 9 4 5 1019.8 1019.8 0.0
21/08:00am 6.7 4.0 3.7 81 1.3 WNW 7 11 4 6 1019.4 1019.4 0.0
21/07:30am 5.0 3.6 3.5 90 0.6 CALM 0 0 0 0 1018.9 1018.9 0.0
21/07:00am 2.3 -0.7 0.8 90 0.6 SW 6 7 3 4 1018.6 1018.6 0.0
21/06:30am 2.0 -1.1 0.2 88 0.7 SSW 6 7 3 4 1018.0 1018.0 0.0
21/06:00am 4.0 0.6 1.9 86 0.8 W 9 11 5 6 1017.7 1017.7 0.0
21/05:30am 4.4 1.0 2.1 85 0.9 WNW 9 11 5 6 1017.3 1017.3 0.0
21/05:00am 4.2 0.8 2.1 86 0.8 WNW 9 11 5 6 1016.8 1016.8 0.0
21/04:30am 3.7 0.5 0.6 80 1.2 W 7 9 4 5 1016.5 1016.5 0.0
21/04:00am 3.6 0.4 0.8 82 1.1 W 7 7 4 4 1016.4 1016.4 0.0
21/03:30am 4.7 1.6 1.6 80 1.2 WNW 7 9 4 5 1016.3 1016.3 0.0
21/03:00am 5.7 2.7 2.2 78 1.4 WNW 7 9 4 5 1016.3 1016.3 0.0
21/02:30am 7.6 4.3 2.7 71 2.0 WNW 9 11 5 6 1016.2 1016.2 0.0
21/02:00am 9.1 5.5 2.9 65 2.6 WNW 11 13 6 7 1016.2 1016.2 0.0
21/01:30am 8.6 5.4 3.0 68 2.4 WNW 9 11 5 6 1016.2 1016.2 0.0
21/01:00am 8.2 5.0 3.1 70 2.2 WNW 9 11 5 6 1016.3 1016.3 0.0
21/12:30am 7.6 4.3 2.3 69 2.2 NW 9 11 5 6 1016.3 1016.3 0.0
21/12:00am 9.5 6.3 2.8 63 2.9 WNW 9 13 5 7 1016.2 1016.2 0.0
 
Date/Time
EST
Temp
°C
App
Temp
°C
Dew
Point
°C
Rel
Hum
%
Delta-T
°C
Wind Press
QNH
hPa
Press
MSL
hPa
Rain since
9am
mm
Dir  Spd
km/h
Gust
km/h
Spd
kts
Gust
kts
20/11:30pm 9.8 6.6 3.1 63 2.9 WNW 9 11 5 6 1016.1 1016.1 0.0
20/11:00pm 10.1 6.5 2.9 61 3.1 WNW 11 15 6 8 1016.2 1016.2 0.0
20/10:30pm 9.8 6.3 3.3 64 2.8 WNW 11 13 6 7 1016.2 1016.2 0.0
20/10:00pm 9.8 7.0 2.9 62 3.0 NW 7 11 4 6 1016.1 1016.1 0.0
20/09:30pm 10.0 6.0 2.8 61 3.1 NW 13 15 7 8 1015.8 1015.7 0.0
20/09:00pm 11.2 7.3 3.5 59 3.4 NW 13 17 7 9 1015.6 1015.5 0.0
20/08:30pm 12.7 9.1 2.8 51 4.4 WNW 11 17 6 9 1015.4 1015.3 0.0
20/08:00pm 14.0 10.4 2.9 47 4.9 W 11 17 6 9 1015.1 1015.0 0.0
20/07:30pm 13.8 10.2 2.7 47 4.9 WNW 11 15 6 8 1015.0 1014.9 0.0
20/07:00pm 14.4 10.4 2.6 45 5.2 WNW 13 17 7 9 1014.5 1014.4 0.0
20/06:30pm 14.6 10.9 2.2 43 5.5 WNW 11 17 6 9 1014.2 1014.1 0.0
20/06:00pm 15.8 11.3 2.2 40 6.1 WNW 15 24 8 13 1013.7 1013.6 0.0
20/05:30pm 16.6 12.5 2.2 38 6.5 WNW 13 19 7 10 1013.5 1013.5 0.0
20/05:00pm 17.6 13.4 1.6 34 7.2 WNW 13 20 7 11 1013.2 1013.2 0.0
20/04:30pm 19.3 15.0 1.3 30 8.1 WNW 13 20 7 11 1013.0 1013.0 0.0
20/04:00pm 20.7 16.2 2.0 29 8.6 WNW 15 26 8 14 1012.6 1012.6 0.0
20/03:30pm 21.7 17.2 1.9 27 9.2 WNW 15 24 8 13 1012.5 1012.5 0.0
20/03:00pm 21.9 17.0 4.0 31 8.7 NW 19 28 10 15 1012.3 1012.3 0.0
20/02:30pm 21.3 16.7 3.5 31 8.5 NW 17 24 9 13 1012.5 1012.5 0.0
20/02:00pm 20.8 15.7 4.0 33 8.1 NW 20 33 11 18 1012.7 1012.7 0.0
20/01:30pm 20.8 15.8 3.5 32 8.2 WNW 19 28 10 15 1013.0 1013.0 0.0
20/01:00pm 21.0 15.7 2.8 30 8.6 NW 20 28 11 15 1013.4 1013.4 0.0
20/12:30pm 20.7 16.4 3.0 31 8.3 WNW 15 26 8 14 1013.9 1013.8 0.0
20/12:00pm 19.5 15.6 3.6 35 7.5 WNW 13 20 7 11 1014.3 1014.2 0.0
20/11:30am 19.2 14.6 3.8 36 7.3 WNW 17 28 9 15 1015.1 1015.0 0.0
20/11:00am 17.8 13.5 5.1 43 6.1 W 17 26 9 14 1015.7 1015.6 0.0
20/10:30am 17.1 12.3 4.8 44 5.9 W 19 28 10 15 1016.4 1016.4 0.0
20/10:00am 17.2 12.7 4.2 42 6.1 NW 17 30 9 16 1016.7 1016.7 0.0
20/09:30am 15.7 11.0 5.0 49 5.1 NW 19 26 10 14 1016.7 1016.7 0.0
20/09:00am 15.0 11.7 6.6 57 4.1 NW 13 17 7 9 1016.6 1016.6 0.0
20/08:30am 13.2 9.8 5.9 61 3.4 NNW 13 17 7 9 1016.8 1016.8 0.0
20/08:00am 11.7 8.1 5.1 64 3.0 NW 13 17 7 9 1016.9 1016.9 0.0
20/07:30am 10.0 6.9 5.6 74 2.0 NW 11 15 6 8 1016.5 1016.5 0.0
20/07:00am 6.1 3.4 3.9 86 0.9 NW 7 9 4 5 1016.1 1016.1 0.0
20/06:30am 5.4 2.2 2.8 83 1.1 NW 9 11 5 6 1015.9 1015.8 0.0
20/06:00am 5.6 2.7 2.6 81 1.2 NW 7 9 4 5 1015.7 1015.6 0.0
20/05:30am 6.4 3.6 2.9 78 1.5 NW 7 9 4 5 1015.2 1015.1 0.0
20/05:00am 6.5 3.6 2.8 77 1.5 NW 7 11 4 6 1014.7 1014.6 0.0
20/04:30am 7.3 3.8 3.4 76 1.7 NW 11 15 6 8 1014.4 1014.3 0.0
20/04:00am 7.7 4.2 3.7 76 1.7 WNW 11 13 6 7 1014.0 1013.9 0.0
20/03:30am 7.2 4.0 3.3 76 1.6 WNW 9 11 5 6 1013.8 1013.7 0.0
20/03:00am 8.0 4.9 3.8 75 1.8 WNW 9 11 5 6 1013.7 1013.6 0.0
20/02:30am 7.6 4.5 3.5 75 1.7 WNW 9 11 5 6 1013.3 1013.3 0.0
20/02:00am 7.2 4.3 2.5 72 1.9 NNW 7 9 4 5 1013.3 1013.3 0.0
20/01:30am 8.8 5.8 4.0 72 2.1 WNW 9 11 5 6 1013.3 1013.3 0.0
20/01:00am 7.4 4.1 2.7 72 2.0 WNW 9 9 5 5 1013.3 1013.3 0.0
20/12:30am 8.5 5.4 3.6 71 2.1 W 9 13 5 7 1013.3 1013.3 0.0
20/12:00am 9.4 6.3 3.6 67 2.5 WNW 9 13 5 7 1013.2 1013.2 0.0
 
Date/Time
EST
Temp
°C
App
Temp
°C
Dew
Point
°C
Rel
Hum
%
Delta-T
°C
Wind Press
QNH
hPa
Press
MSL
hPa
Rain since
9am
mm
Dir  Spd
km/h
Gust
km/h
Spd
kts
Gust
kts
19/11:30pm 10.1 7.6 3.6 64 2.8 WNW 6 11 3 6 1013.4 1013.4 0.0
19/11:00pm 10.4 7.2 3.2 61 3.1 NW 9 15 5 8 1013.7 1013.6 0.0
19/10:30pm 10.6 6.9 2.2 56 3.6 WNW 11 20 6 11 1013.8 1013.7 0.0
19/10:00pm 12.7 8.8 3.4 53 4.1 W 13 26 7 14 1013.7 1013.6 0.0
19/09:30pm 12.3 9.1 3.3 54 4.0 W 9 15 5 8 1013.8 1013.7 0.0
19/09:00pm 11.0 8.3 3.8 61 3.2 WNW 7 9 4 5 1013.4 1013.4 0.0
19/08:30pm 11.1 8.0 3.4 59 3.4 WNW 9 11 5 6 1013.2 1013.2 0.0
19/08:00pm 11.8 8.7 3.8 58 3.6 WNW 9 13 5 7 1013.0 1013.0 0.0
19/07:30pm 11.4 7.9 3.4 58 3.5 WNW 11 13 6 7 1012.4 1012.4 0.0
19/07:00pm 11.7 8.5 3.0 55 3.8 WNW 9 11 5 6 1011.9 1011.9 0.0
19/06:30pm 12.7 8.7 3.1 52 4.2 WNW 13 15 7 8 1011.4 1011.4 0.0
19/06:00pm 13.1 9.4 2.6 49 4.6 W 11 17 6 9 1011.2 1011.2 0.0
19/05:30pm 14.3 10.2 2.2 44 5.3 W 13 20 7 11 1010.5 1010.5 0.0
19/05:00pm 15.4 9.8 1.5 39 6.1 WSW 20 33 11 18 1010.0 1010.0 0.0
19/04:30pm 16.1 10.7 1.0 36 6.6 W 19 33 10 18 1009.8 1009.8 0.0
19/04:00pm 16.6 10.7 1.5 36 6.7 W 22 43 12 23 1009.5 1009.5 0.0
19/03:35pm 17.6 10.5 1.2 33 7.3 W 28 46 15 25 1009.0 1009.0 0.0
19/03:30pm 17.7 11.7 0.8 32 7.4 W 22 37 12 20 1008.9 1008.9 0.0
19/03:00pm 18.2 11.7 0.4 30 7.8 WSW 24 43 13 23 1008.5 1008.5 0.0

Other Formats:

Comma delimited format used in spreadsheet applications
http://www.bom.gov.au/fwo/IDN60801/IDN60801.94573.axf

JavaScript Object Notation format (JSON) in row-major order
http://www.bom.gov.au/fwo/IDN60801/IDN60801.94573.json